Fontana Observed Data For Previous 48 Hours

Caption
Day and Hour Reservoir Elevation (behind dam)* Tailwater Elevation (below dam)* Average Hourly Discharge*
7/14/2018 2 AM EDT 1,703.25 1,275.55 0
7/14/2018 3 AM EDT 1,703.26 1,275.46 0
7/14/2018 4 AM EDT 1,703.28 1,275.39 0
7/14/2018 5 AM EDT 1,703.32 1,275.36 0
7/14/2018 6 AM EDT 1,703.34 1,275.32 0
7/14/2018 7 AM EDT 1,703.34 1,275.31 0
7/14/2018 8 AM EDT 1,703.37 1,275.30 0
7/14/2018 9 AM EDT 1,703.40 1,275.28 0
7/14/2018 10 AM EDT 1,703.42 1,275.27 0
7/14/2018 11 AM EDT 1,703.43 1,276.37 151
7/14/2018 12 PM EDT 1,703.46 1,276.96 2,723
7/14/2018 1 PM EDT 1,703.47 1,277.11 2,784
7/14/2018 2 PM EDT 1,703.46 1,279.22 5,188
7/14/2018 3 PM EDT 1,703.45 1,279.46 5,977
7/14/2018 4 PM EDT 1,703.45 1,279.48 6,350
7/14/2018 5 PM EDT 1,703.44 1,279.52 6,352
7/14/2018 6 PM EDT 1,703.41 1,279.48 6,360
7/14/2018 7 PM EDT 1,703.41 1,279.52 6,343
7/14/2018 8 PM EDT 1,703.39 1,279.47 6,359
7/14/2018 9 PM EDT 1,703.40 1,277.14 2,937
7/14/2018 10 PM EDT 1,703.41 1,277.27 2,894
7/14/2018 11 PM EDT 1,703.43 1,275.05 58
7/15/2018 12 AM EDT 1,703.46 1,274.93 0
7/15/2018 1 AM EDT 1,703.48 1,274.86 0
7/15/2018 2 AM EDT 1,703.52 1,274.80 0
7/15/2018 3 AM EDT 1,703.54 1,274.74 0
7/15/2018 4 AM EDT 1,703.57 1,274.70 0
7/15/2018 5 AM EDT 1,703.61 1,274.66 0
7/15/2018 6 AM EDT 1,703.63 1,274.68 0
7/15/2018 7 AM EDT 1,703.65 1,274.68 0
7/15/2018 8 AM EDT 1,703.67 1,274.69 0
7/15/2018 9 AM EDT 1,703.70 1,274.70 0
7/15/2018 10 AM EDT 1,703.71 1,276.01 154
7/15/2018 11 AM EDT 1,703.72 1,277.26 2,778
7/15/2018 12 PM EDT 1,703.72 1,277.13 2,873
7/15/2018 1 PM EDT 1,703.72 1,279.45 5,383
7/15/2018 2 PM EDT 1,703.68 1,279.49 6,350
7/15/2018 3 PM EDT 1,703.67 1,279.54 6,354
7/15/2018 4 PM EDT 1,703.65 1,279.52 6,353
7/15/2018 5 PM EDT 1,703.62 1,279.49 6,350
7/15/2018 6 PM EDT 1,703.60 1,279.53 6,356
7/15/2018 7 PM EDT 1,703.58 1,279.49 6,350
7/15/2018 8 PM EDT 1,703.57 1,279.53 6,342
7/15/2018 9 PM EDT 1,703.54 1,279.49 6,357
7/15/2018 10 PM EDT 1,703.52 1,279.51 6,356
7/15/2018 11 PM EDT 1,703.49 1,279.48 6,358
7/16/2018 12 AM EDT 1,703.48 1,278.99 5,548
7/16/2018 1 AM EDT 1,703.47 1,277.20 2,793
7/16/2018 2 AM EDT 1,703.48 1,275.54 52
7/16/2018 3 AM EDT 1,703.51 1,275.39 0
7/16/2018 4 AM EDT 1,703.54 1,275.30 0
7/16/2018 5 AM EDT 1,703.55 1,274.53 0
7/16/2018 6 AM EDT 1,703.58 1,273.78 0
7/16/2018 7 AM EDT 1,703.60 1,275.32 157
7/16/2018 8 AM EDT 1,703.62 1,277.07 2,743
7/16/2018 9 AM EDT 1,703.60 1,279.10 5,415
7/16/2018 10 AM EDT 1,703.57 1,279.41 5,815

Elevations are in feet above sea level. Discharges are in cubic feet per second and are reported at the end of the hour.